Holts Summit, Missouri
Current Conditions -  °F | °C
As of 3:53 PM on Tuesday 21 Oct 2014 (Local Time) from KJEF Reporting Station
Clear Clear  
Wind Chill: 74°   Ceiling: Unl
Heat Index: 74°   Visibility: 10mi
Dew Point: 43°   Wind: 6mph
Humidity: 33%   Direction: NA
Pressure: 30.08"   Gusts: NA
Location:  38.64°N, 92.12°W
Report Text: KJEF 212053Z VRB05KT 10SM CLR 23/06 A3008 RMK AO2 SLP176 T02330061 56012
Loading
Personal Weather Stations






























Interactive Weather Map
Tropical Storm Tracking
New forecast layout! Learn more

10-Day Weather Forecast

Advertisements
Track Severe Weather on mobile